Time;durP1;ratioP1;P1;durP2;ratioP2;P2;SDS_P1;SDS_P2;PMS_P1;PMS_P2;Temp;Humidity;BMP_temperature;BMP_pressure;BME280_temperature;BME280_humidity;BME280_pressure;Samples;Min_cycle;Max_cycle;Signal;HPM_P1;HPM_P2
2022/12/03 00:01:27;;;;;;;13.17;7.37;;;;;;;5.96;74.87;100910.53;5010633;28;20210;-62
2022/12/03 00:03:55;;;;;;;14.07;7.47;;;;;;;5.97;74.83;100912.22;5015154;28;20205;-62
2022/12/03 00:06:23;;;;;;;16.97;8.90;;;;;;;5.92;75.14;100919.59;5018134;28;20331;-63
2022/12/03 00:08:52;;;;;;;14.13;7.77;;;;;;;5.89;75.39;100902.22;5014481;28;20220;-62
2022/12/03 00:11:20;;;;;;;16.03;8.50;;;;;;;5.86;75.53;100909.47;5021756;28;20239;-64
2022/12/03 00:13:48;;;;;;;17.30;7.73;;;;;;;5.83;75.91;100905.25;5015658;28;20241;-63
2022/12/03 00:16:15;;;;;;;15.37;8.20;;;;;;;5.86;75.48;100905.03;5016483;28;20220;-62
2022/12/03 00:18:45;;;;;;;16.93;8.87;;;;;;;5.93;75.11;100895.78;5018943;28;20205;-63
2022/12/03 00:21:17;;;;;;;16.03;8.13;;;;;;;5.97;75.11;100907.81;5015820;28;20300;-65
2022/12/03 00:23:52;;;;;;;15.87;8.43;;;;;;;5.99;75.15;100899.78;5010699;28;20296;-63
2022/12/03 00:26:20;;;;;;;16.97;8.20;;;;;;;5.87;74.84;100900.63;5011398;28;20263;-62
2022/12/03 00:28:48;;;;;;;15.57;8.30;;;;;;;5.74;75.57;100905.03;5011324;28;20578;-63
2022/12/03 00:31:15;;;;;;;13.93;7.53;;;;;;;5.66;76.25;100898.53;5010610;28;20217;-63
2022/12/03 00:33:45;;;;;;;15.47;8.03;;;;;;;5.66;77.00;100903.78;5012935;28;20213;-63
2022/12/03 00:36:12;;;;;;;15.77;7.77;;;;;;;5.72;76.63;100899.88;5014530;28;20217;-62
2022/12/03 00:38:40;;;;;;;15.93;7.63;;;;;;;5.80;76.13;100899.38;5018382;28;20205;-62
2022/12/03 00:41:08;;;;;;;18.17;8.50;;;;;;;5.85;75.77;100897.25;5018621;28;20200;-61
2022/12/03 00:43:35;;;;;;;17.43;8.17;;;;;;;5.88;75.23;100899.72;5015909;28;20216;-62
2022/12/03 00:46:03;;;;;;;17.23;7.83;;;;;;;5.86;74.60;100899.78;5012594;28;20224;-62
2022/12/03 00:48:31;;;;;;;16.73;8.20;;;;;;;5.91;74.78;100894.22;5017118;28;21195;-63
2022/12/03 00:51:00;;;;;;;16.03;7.93;;;;;;;5.87;74.55;100890.09;5021390;28;20208;-62
2022/12/03 00:53:27;;;;;;;16.37;8.57;;;;;;;5.81;74.91;100893.13;5018194;28;20650;-62
2022/12/03 00:55:55;;;;;;;14.60;7.60;;;;;;;5.81;75.02;100895.75;5017213;28;20205;-62
2022/12/03 00:58:23;;;;;;;18.53;8.10;;;;;;;5.75;75.03;100883.03;5018090;28;20210;-62
2022/12/03 01:00:51;;;;;;;14.40;8.27;;;;;;;5.78;75.55;100890.75;5010676;28;20209;-63
2022/12/03 01:03:18;;;;;;;15.03;7.53;;;;;;;5.73;75.09;100887.56;5020481;28;20209;-63
2022/12/03 01:05:46;;;;;;;14.83;7.77;;;;;;;5.68;75.28;100896.63;5019331;28;20213;-62
2022/12/03 01:08:15;;;;;;;14.30;7.60;;;;;;;5.67;75.50;100891.47;5016601;28;20217;-63
2022/12/03 01:10:43;;;;;;;15.50;7.77;;;;;;;5.66;75.85;100893.25;5019603;28;20224;-63
2022/12/03 01:13:11;;;;;;;14.83;7.83;;;;;;;5.77;75.55;100895.16;5020561;28;20244;-63
2022/12/03 01:15:38;;;;;;;16.60;8.33;;;;;;;5.74;75.42;100894.53;5022677;28;20204;-63
2022/12/03 01:18:06;;;;;;;19.30;8.23;;;;;;;5.63;75.38;100893.47;5022919;28;20292;-63
2022/12/03 01:20:35;;;;;;;18.40;8.57;;;;;;;5.72;75.27;100891.19;5017060;28;20206;-63
2022/12/03 01:23:02;;;;;;;16.97;8.60;;;;;;;5.66;74.81;100903.78;5021595;28;20209;-63
2022/12/03 01:25:31;;;;;;;18.27;8.40;;;;;;;5.68;75.02;100901.06;5018196;28;20294;-63
2022/12/03 01:27:59;;;;;;;17.03;8.27;;;;;;;5.58;75.38;100900.84;5021775;28;20233;-63
2022/12/03 01:30:27;;;;;;;17.73;9.60;;;;;;;5.54;75.48;100903.81;5019251;28;20210;-62
2022/12/03 01:32:54;;;;;;;20.30;8.80;;;;;;;5.53;75.93;100899.50;5020695;28;20577;-63
2022/12/03 01:35:21;;;;;;;16.07;8.60;;;;;;;5.66;75.60;100898.53;5022012;28;20205;-63
2022/12/03 01:37:49;;;;;;;17.30;8.30;;;;;;;5.70;75.38;100903.59;5015347;28;20223;-62
2022/12/03 01:40:20;;;;;;;15.60;8.70;;;;;;;5.71;75.01;100900.00;5020390;28;20551;-63
2022/12/03 01:42:49;;;;;;;21.27;9.30;;;;;;;5.72;74.62;100899.06;5023235;28;20650;-63
2022/12/03 01:45:23;;;;;;;15.30;8.53;;;;;;;5.76;74.86;100896.09;5018209;28;20216;-62
2022/12/03 01:47:51;;;;;;;17.67;9.23;;;;;;;5.78;74.55;100902.09;5028488;28;20596;-62
2022/12/03 01:50:23;;;;;;;15.97;8.70;;;;;;;5.78;74.70;100901.25;5015661;28;20213;-62
2022/12/03 01:52:53;;;;;;;18.27;8.73;;;;;;;5.89;74.44;100898.75;5019256;28;20212;-62
2022/12/03 01:55:24;;;;;;;18.47;9.27;;;;;;;5.85;73.77;100905.16;5020387;28;20292;-62
2022/12/03 01:57:55;;;;;;;19.27;8.97;;;;;;;5.82;74.40;100913.25;5021776;28;20204;-62
2022/12/03 02:00:26;;;;;;;18.90;8.67;;;;;;;5.86;74.28;100914.72;5019332;28;20208;-62
2022/12/03 02:02:56;;;;;;;20.13;9.40;;;;;;;5.83;74.28;100914.94;5013536;28;20848;-63
2022/12/03 02:05:28;;;;;;;18.77;9.03;;;;;;;5.82;74.49;100908.81;5016817;28;20208;-63
2022/12/03 02:07:56;;;;;;;19.23;9.47;;;;;;;5.86;74.60;100915.56;5023838;28;20584;-63
2022/12/03 02:10:27;;;;;;;18.10;9.23;;;;;;;5.82;75.02;100915.88;5013466;28;20233;-63
2022/12/03 02:12:59;;;;;;;21.73;10.33;;;;;;;5.77;75.22;100912.75;5023179;28;20930;-63
2022/12/03 02:15:27;;;;;;;23.17;10.53;;;;;;;5.72;75.01;100913.03;5024654;28;20213;-63
2022/12/03 02:17:56;;;;;;;18.87;10.10;;;;;;;5.70;75.83;100908.84;5023766;28;20312;-63
2022/12/03 02:20:24;;;;;;;18.77;8.77;;;;;;;5.66;75.90;100916.94;5021815;28;20204;-63
2022/12/03 02:23:02;;;;;;;20.07;9.63;;;;;;;5.70;76.24;100914.13;5016649;28;20205;-63
2022/12/03 02:25:34;;;;;;;18.27;9.00;;;;;;;5.69;75.74;100918.53;5015483;28;20205;-63
2022/12/03 02:28:04;;;;;;;19.80;9.40;;;;;;;5.63;76.27;100917.16;5018223;28;20239;-63
2022/12/03 02:30:32;;;;;;;19.60;9.93;;;;;;;5.66;76.58;100908.22;5017998;28;20255;-63
2022/12/03 02:33:01;;;;;;;21.07;10.10;;;;;;;5.76;76.47;100913.69;5025995;28;20757;-63
2022/12/03 02:35:32;;;;;;;21.73;9.83;;;;;;;5.80;75.83;100907.28;5024122;28;20652;-63
2022/12/03 02:38:06;;;;;;;20.77;10.23;;;;;;;5.80;75.90;100909.91;5018847;28;20209;-63
2022/12/03 02:40:36;;;;;;;21.30;10.60;;;;;;;5.85;75.39;100905.16;5032349;28;20212;-62
2022/12/03 02:43:04;;;;;;;21.47;11.23;;;;;;;5.80;75.69;100902.00;5022403;28;20212;-63
2022/12/03 02:45:35;;;;;;;19.20;9.93;;;;;;;5.91;75.12;100910.00;5029324;28;20251;-63
2022/12/03 02:48:08;;;;;;;22.50;10.90;;;;;;;6.01;74.78;100909.25;5024505;28;20697;-61
2022/12/03 02:50:40;;;;;;;21.93;10.67;;;;;;;5.99;74.49;100907.66;5019782;28;20205;-64
2022/12/03 02:53:12;;;;;;;22.23;11.33;;;;;;;5.99;74.24;100905.88;5016739;28;20300;-62
2022/12/03 02:55:42;;;;;;;21.33;10.27;;;;;;;5.88;74.90;100904.97;5020119;28;20208;-64
2022/12/03 02:58:11;;;;;;;22.47;10.60;;;;;;;6.01;74.67;100909.25;5024534;28;20197;-62
2022/12/03 03:00:39;;;;;;;22.87;10.57;;;;;;;6.04;74.34;100913.47;5020966;28;20719;-63
2022/12/03 03:03:08;;;;;;;21.20;10.30;;;;;;;6.11;74.32;100913.88;5017523;28;20209;-64
2022/12/03 03:05:38;;;;;;;22.20;11.47;;;;;;;6.12;74.12;100913.78;5015755;28;20243;-63
2022/12/03 03:08:08;;;;;;;22.13;11.13;;;;;;;6.09;74.38;100918.41;5023001;28;20229;-63
2022/12/03 03:10:38;;;;;;;23.97;11.23;;;;;;;6.07;73.97;100902.69;5015117;28;20230;-63
2022/12/03 03:13:10;;;;;;;21.43;11.13;;;;;;;6.06;74.29;100911.59;5021048;28;20259;-63
2022/12/03 03:15:39;;;;;;;23.40;12.07;;;;;;;6.04;74.21;100913.47;5023761;28;20225;-64
2022/12/03 03:18:08;;;;;;;23.80;11.00;;;;;;;5.97;74.50;100912.22;5018148;28;20643;-64
2022/12/03 03:20:36;;;;;;;25.73;12.03;;;;;;;6.01;74.62;100908.41;5023237;28;20962;-62
2022/12/03 03:23:14;;;;;;;25.33;12.47;;;;;;;6.03;73.65;100906.53;5022525;28;20209;-62
2022/12/03 03:25:45;;;;;;;22.57;10.27;;;;;;;6.06;73.92;100911.59;5017587;28;20212;-63
2022/12/03 03:28:16;;;;;;;24.07;10.70;;;;;;;6.01;74.08;100911.03;5017575;28;20291;-63
2022/12/03 03:30:44;;;;;;;26.20;11.10;;;;;;;5.99;73.80;100905.03;5015081;28;20686;-63
2022/12/03 03:33:13;;;;;;;22.70;11.20;;;;;;;6.06;73.94;100908.94;5015481;28;20216;-63
2022/12/03 03:35:41;;;;;;;25.43;12.33;;;;;;;6.08;74.08;100914.91;5020339;28;20240;-63
2022/12/03 03:38:10;;;;;;;22.80;10.93;;;;;;;6.07;74.20;100902.69;5015837;28;20289;-64
2022/12/03 03:40:39;;;;;;;22.93;11.23;;;;;;;6.12;73.98;100913.78;5022961;28;20249;-63
2022/12/03 03:43:07;;;;;;;25.63;11.10;;;;;;;6.22;73.58;100912.16;5015661;28;20209;-63
2022/12/03 03:45:36;;;;;;;25.63;12.40;;;;;;;6.26;73.04;100908.34;5024529;28;20204;-63
2022/12/03 03:48:04;;;;;;;26.07;12.67;;;;;;;6.24;73.03;100905.00;5020812;28;20233;-63
2022/12/03 03:50:32;;;;;;;22.40;11.57;;;;;;;6.13;73.46;100898.81;5022448;28;20215;-63
2022/12/03 03:53:02;;;;;;;26.57;12.07;;;;;;;6.07;73.43;100902.69;5014665;28;20685;-63
2022/12/03 03:55:30;;;;;;;22.73;11.10;;;;;;;6.08;73.51;100898.28;5015292;28;20213;-63
2022/12/03 03:57:58;;;;;;;24.00;11.73;;;;;;;6.09;73.87;100898.19;5024547;28;20659;-63
2022/12/03 04:00:26;;;;;;;25.73;11.77;;;;;;;5.99;74.15;100897.97;5024659;28;20217;-63
2022/12/03 04:02:55;;;;;;;22.23;10.77;;;;;;;6.11;74.09;100898.06;5014188;28;20248;-62
2022/12/03 04:05:24;;;;;;;27.27;12.83;;;;;;;6.06;73.80;100901.03;5018595;28;20213;-63
2022/12/03 04:07:52;;;;;;;27.10;12.37;;;;;;;6.07;74.15;100905.34;5019271;28;20213;-63
2022/12/03 04:13:06;;;;;;;23.10;11.27;;;;;;;5.89;74.25;100893.50;5015827;28;20241;-63
2022/12/03 04:15:33;;;;;;;28.70;12.33;;;;;;;6.01;74.30;100903.16;5022732;28;20209;-63
2022/12/03 04:20:48;;;;;;;23.30;10.50;;;;;;;6.11;73.94;100896.28;5031252;28;20205;-64
2022/12/03 04:23:15;;;;;;;29.07;12.63;;;;;;;6.05;73.78;100894.09;5020349;28;20213;-63
2022/12/03 04:36:44;;;;;;;27.50;12.50;;;;;;;6.02;73.40;100889.03;5019940;28;20213;-63
2022/12/03 04:39:12;;;;;;;26.23;11.70;;;;;;;5.95;73.59;100882.53;5019458;28;20224;-63
2022/12/03 04:41:40;;;;;;;28.40;12.93;;;;;;;5.98;73.91;100885.78;5027105;28;20213;-63
2022/12/03 04:46:53;;;;;;;30.27;12.50;;;;;;;6.03;73.52;100885.47;5020918;28;20209;-63
2022/12/03 04:49:22;;;;;;;26.70;11.53;;;;;;;5.92;74.03;100885.38;5024688;28;20632;-63
2022/12/03 04:51:50;;;;;;;28.13;12.70;;;;;;;6.00;74.24;100885.66;5022319;28;20208;-63
2022/12/03 04:54:17;;;;;;;30.50;13.20;;;;;;;6.07;73.53;100886.09;5015866;28;20982;-63
2022/12/03 04:56:45;;;;;;;27.67;12.67;;;;;;;6.12;73.52;100889.22;5018622;28;20300;-63
2022/12/03 04:59:13;;;;;;;24.50;11.00;;;;;;;6.10;73.76;100886.69;5024203;28;20217;-61
2022/12/03 05:01:43;;;;;;;26.47;11.93;;;;;;;6.04;73.91;100887.16;5020467;28;20224;-61
2022/12/03 05:04:11;;;;;;;24.00;11.60;;;;;;;6.12;73.55;100883.97;5029504;28;21015;-61
2022/12/03 05:06:41;;;;;;;29.53;12.50;;;;;;;6.11;73.28;100879.63;5028630;28;20311;-64
2022/12/03 05:09:09;;;;;;;26.37;11.93;;;;;;;6.14;73.07;100885.53;5018010;28;20224;-62
2022/12/03 05:11:36;;;;;;;30.70;12.50;;;;;;;6.08;72.99;100883.31;5022106;28;20308;-62
2022/12/03 05:14:05;;;;;;;26.23;12.60;;;;;;;6.10;73.17;100881.44;5023085;28;20236;-62
2022/12/03 05:16:33;;;;;;;28.23;12.87;;;;;;;6.17;73.13;100880.03;5022056;28;20258;-62
2022/12/03 05:19:01;;;;;;;26.33;12.83;;;;;;;6.18;73.00;100876.47;5022758;28;20217;-63
2022/12/03 05:21:28;;;;;;;26.77;12.67;;;;;;;6.09;73.36;100881.53;5018105;28;20225;-62
2022/12/03 05:23:57;;;;;;;28.47;12.90;;;;;;;5.93;73.95;100887.06;5017176;28;20210;-62
2022/12/03 05:26:25;;;;;;;26.67;12.90;;;;;;;5.93;74.44;100874.72;5026134;28;20221;-62
2022/12/03 05:28:53;;;;;;;28.23;13.33;;;;;;;6.00;74.34;100880.41;5024426;28;20254;-63
2022/12/03 05:31:20;;;;;;;24.83;12.20;;;;;;;6.12;73.64;100879.53;5016236;28;20213;-62
2022/12/03 05:33:48;;;;;;;28.00;12.67;;;;;;;6.20;73.38;100877.19;5017208;28;20233;-62
2022/12/03 05:36:16;;;;;;;23.93;12.27;;;;;;;6.21;73.10;100876.25;5021606;28;20579;-62
2022/12/03 05:38:44;;;;;;;29.03;13.30;;;;;;;6.26;72.62;100876.75;5020513;28;20709;-62
2022/12/03 05:43:58;;;;;;;25.07;12.00;;;;;;;6.15;72.87;100868.78;5027838;28;20205;-62
2022/12/03 05:46:26;;;;;;;24.50;11.67;;;;;;;6.07;73.30;100865.84;5018372;28;20224;-62
2022/12/03 05:48:54;;;;;;;27.10;12.43;;;;;;;5.98;73.92;100863.91;5016507;28;20230;-63
2022/12/03 05:51:22;;;;;;;28.43;11.87;;;;;;;5.94;74.17;100865.06;5019319;28;20216;-63
2022/12/03 05:53:49;;;;;;;28.87;12.90;;;;;;;6.00;73.93;100862.81;5017792;28;20603;-62
2022/12/03 05:56:18;;;;;;;29.40;13.93;;;;;;;6.05;73.46;100873.03;5024376;28;20626;-63
2022/12/03 05:58:46;;;;;;;28.80;13.10;;;;;;;5.97;73.71;100867.47;5021199;28;20228;-62
2022/12/03 06:01:14;;;;;;;28.37;12.53;;;;;;;5.97;73.83;100865.69;5018386;28;20312;-62
2022/12/03 06:03:42;;;;;;;26.97;12.47;;;;;;;5.98;73.57;100869.97;5018197;28;20225;-63
2022/12/03 06:06:10;;;;;;;25.30;11.73;;;;;;;5.95;73.89;100874.63;5017830;28;20750;-62
2022/12/03 06:08:37;;;;;;;29.47;12.53;;;;;;;6.01;73.93;100871.56;5015688;28;20214;-62
2022/12/03 06:11:05;;;;;;;27.47;12.70;;;;;;;5.98;73.58;100869.97;5017999;28;20233;-62
2022/12/03 06:13:34;;;;;;;28.00;12.97;;;;;;;5.92;73.62;100857.25;5020916;28;20240;-62
2022/12/03 06:16:02;;;;;;;27.80;12.20;;;;;;;5.92;74.20;100872.22;5022298;28;20241;-63
2022/12/03 06:18:30;;;;;;;27.73;13.10;;;;;;;6.02;73.67;100862.72;5016794;28;20205;-62
2022/12/03 06:20:58;;;;;;;29.03;13.03;;;;;;;6.01;73.28;100861.88;5012616;28;20721;-62
2022/12/03 06:23:26;;;;;;;25.60;11.93;;;;;;;5.96;73.54;100858.75;5025617;28;20224;-62
2022/12/03 06:25:53;;;;;;;24.37;12.13;;;;;;;6.01;73.49;100855.75;5020776;28;20215;-62
2022/12/03 06:28:21;;;;;;;25.10;11.63;;;;;;;6.08;73.12;100862.25;5019474;28;20213;-62
2022/12/03 06:30:50;;;;;;;27.17;12.13;;;;;;;5.98;73.00;100859.44;5025979;28;20716;-63
2022/12/03 06:33:18;;;;;;;25.27;11.47;;;;;;;6.01;73.00;100856.59;5023310;28;20737;-63
2022/12/03 06:35:46;;;;;;;24.57;10.90;;;;;;;6.02;73.00;100857.44;5023310;28;20212;-63
2022/12/03 06:38:14;;;;;;;27.77;11.77;;;;;;;6.04;72.72;100851.13;5017875;28;20212;-64
2022/12/03 06:40:41;;;;;;;25.60;11.53;;;;;;;6.06;72.88;100844.91;5013728;28;20213;-63
2022/12/03 06:43:09;;;;;;;30.37;12.13;;;;;;;5.98;73.07;100853.38;5017231;28;20205;-63
2022/12/03 06:45:37;;;;;;;26.13;12.30;;;;;;;5.91;73.31;100838.94;5013567;28;20209;-63
2022/12/03 06:48:12;;;;;;;22.73;11.07;;;;;;;5.92;73.12;100843.25;5021027;28;20217;-63
2022/12/03 06:50:40;;;;;;;24.00;11.33;;;;;;;5.87;73.10;100842.72;5021709;28;20236;-63
2022/12/03 06:53:08;;;;;;;26.83;12.73;;;;;;;5.84;73.35;100846.41;5012835;28;20271;-62
2022/12/03 06:55:35;;;;;;;26.50;11.90;;;;;;;5.70;72.80;100843.91;5021508;28;20208;-63
2022/12/03 06:58:03;;;;;;;24.53;11.83;;;;;;;5.54;73.81;100841.50;5015241;28;20585;-62
2022/12/03 07:00:31;;;;;;;22.73;11.43;;;;;;;5.57;73.74;100843.06;5014871;28;20210;-62
2022/12/03 07:02:58;;;;;;;25.57;11.13;;;;;;;5.59;73.67;100849.91;5014886;28;20550;-63
2022/12/03 07:05:28;;;;;;;26.07;13.17;;;;;;;5.54;73.62;100857.28;5018653;28;20213;-62
2022/12/03 07:07:55;;;;;;;27.47;11.50;;;;;;;5.59;73.70;100855.19;5016649;28;20645;-63
2022/12/03 07:10:23;;;;;;;25.40;12.67;;;;;;;5.60;73.12;100856.88;5016128;28;20648;-63
2022/12/03 07:12:51;;;;;;;22.37;10.57;;;;;;;5.60;73.14;100859.50;5019556;28;20251;-63
2022/12/03 07:15:19;;;;;;;28.80;11.63;;;;;;;5.55;73.59;100861.59;5018942;28;20200;-63
2022/12/03 07:17:47;;;;;;;24.00;10.67;;;;;;;5.57;73.79;100875.50;5017735;28;20212;-63
2022/12/03 07:20:15;;;;;;;23.57;10.83;;;;;;;5.54;73.39;100875.69;5018225;28;20217;-62
2022/12/03 07:22:44;;;;;;;26.63;12.30;;;;;;;5.57;73.94;100886.00;5016537;28;20276;-63
2022/12/03 07:25:13;;;;;;;27.30;11.43;;;;;;;5.67;73.59;100881.78;5025763;28;20213;-63
2022/12/03 07:27:49;;;;;;;24.40;10.80;;;;;;;5.72;73.34;100885.91;5020862;28;20254;-63
2022/12/03 07:30:17;;;;;;;22.87;11.10;;;;;;;5.78;72.95;100891.59;5019467;28;20229;-62
2022/12/03 07:32:45;;;;;;;23.33;10.43;;;;;;;5.88;72.24;100887.41;5024367;28;20641;-62
2022/12/03 07:35:13;;;;;;;27.50;11.70;;;;;;;5.99;71.59;100894.50;5018524;28;20670;-63
2022/12/03 07:37:41;;;;;;;21.77;10.17;;;;;;;5.92;71.42;100882.75;5024175;28;20224;-62
2022/12/03 07:40:11;;;;;;;21.30;9.23;;;;;;;5.86;71.89;100883.16;5024479;28;20534;-63
2022/12/03 07:42:39;;;;;;;22.67;10.67;;;;;;;5.86;72.15;100881.34;5019577;28;20213;-63
2022/12/03 07:45:08;;;;;;;21.50;9.53;;;;;;;5.91;71.94;100881.91;5026522;28;20576;-62
2022/12/03 07:47:36;;;;;;;22.27;10.40;;;;;;;5.86;71.91;100883.16;5025679;28;20215;-62
2022/12/03 07:50:04;;;;;;;21.83;9.83;;;;;;;5.87;72.23;100875.16;5021157;28;20233;-63
2022/12/03 07:52:32;;;;;;;25.07;10.10;;;;;;;5.84;72.21;100885.03;5024993;28;20213;-64
2022/12/03 07:55:00;;;;;;;19.20;9.37;;;;;;;5.81;72.55;100880.81;5022774;28;20667;-63
2022/12/03 07:57:29;;;;;;;20.70;10.77;;;;;;;5.93;72.09;100887.91;5019119;28;20221;-63
2022/12/03 07:59:56;;;;;;;20.67;9.30;;;;;;;6.00;71.98;100880.41;5014420;28;20812;-62
2022/12/03 08:02:24;;;;;;;20.20;10.20;;;;;;;6.04;72.04;100876.63;5020273;28;20215;-62
2022/12/03 08:04:52;;;;;;;18.80;10.00;;;;;;;6.04;72.02;100888.00;5020309;28;20228;-62
2022/12/03 08:07:20;;;;;;;22.67;10.70;;;;;;;6.00;72.17;100881.25;5022115;28;20274;-62
2022/12/03 08:09:48;;;;;;;25.97;12.47;;;;;;;5.98;72.57;100887.59;5022252;28;20681;-62
2022/12/03 08:12:19;;;;;;;22.70;9.73;;;;;;;6.04;72.07;100892.41;5020656;28;20220;-62
2022/12/03 08:14:49;;;;;;;21.03;10.20;;;;;;;6.15;71.57;100887.22;5017615;28;20600;-63
2022/12/03 08:17:18;;;;;;;22.67;10.70;;;;;;;6.16;70.92;100890.69;5024869;28;20216;-63
2022/12/03 08:19:47;;;;;;;21.23;10.10;;;;;;;6.30;70.48;100886.13;5021677;28;20270;-62
2022/12/03 08:22:16;;;;;;;21.83;10.70;;;;;;;6.17;70.40;100892.34;5022221;28;20205;-62
2022/12/03 08:24:44;;;;;;;19.50;9.57;;;;;;;6.17;70.95;100893.19;5018691;28;20215;-63
2022/12/03 08:27:18;;;;;;;21.57;10.00;;;;;;;6.19;71.05;100893.09;5018620;28;20212;-63
2022/12/03 08:29:46;;;;;;;23.63;10.33;;;;;;;6.17;71.56;100887.94;5014129;28;20209;-63
2022/12/03 08:32:15;;;;;;;21.83;10.93;;;;;;;6.22;71.40;100885.00;5021708;28;20284;-62
2022/12/03 08:34:44;;;;;;;22.03;10.60;;;;;;;6.32;71.17;100878.13;5020159;28;20206;-63
2022/12/03 08:37:16;;;;;;;20.83;9.13;;;;;;;6.38;70.43;100875.03;5016985;28;20205;-63
2022/12/03 08:39:45;;;;;;;21.57;9.73;;;;;;;6.44;70.58;100874.56;5024524;28;20209;-63
2022/12/03 08:45:39;;;;;;;22.13;10.50;;;;;;;6.83;69.42;100869.97;5022451;28;20205;-63
2022/12/03 08:48:33;;;;;;;20.87;10.20;;;;;;;6.89;68.29;100875.59;5022841;28;20655;-63
2022/12/03 08:51:04;;;;;;;19.63;9.27;;;;;;;6.92;68.61;100885.94;5019080;28;20245;-63
2022/12/03 08:53:35;;;;;;;21.10;9.97;;;;;;;6.95;67.99;100864.59;5020280;28;20210;-62
2022/12/03 08:56:05;;;;;;;20.50;10.37;;;;;;;6.96;68.31;100879.47;5022384;28;20209;-63
2022/12/03 08:58:38;;;;;;;18.30;10.50;;;;;;;7.00;68.23;100873.00;5015227;28;20205;-63
2022/12/03 09:01:29;;;;;;;20.90;10.20;;;;;;;7.00;68.02;100878.28;5017282;28;20204;-63
2022/12/03 09:04:14;;;;;;;18.80;9.63;;;;;;;7.00;68.02;100878.28;5011490;28;20670;-61
2022/12/03 09:06:42;;;;;;;24.00;11.23;;;;;;;6.92;68.33;100880.66;5019082;28;20313;-64
2022/12/03 09:09:10;;;;;;;21.53;10.87;;;;;;;6.93;68.68;100878.88;5016583;28;20214;-61
2022/12/03 09:11:37;;;;;;;24.87;13.53;;;;;;;6.93;68.28;100866.53;5025564;28;20329;-61
2022/12/03 09:14:06;;;;;;;21.60;11.67;;;;;;;7.03;67.41;100872.78;5019557;28;20240;-61
2022/12/03 09:16:33;;;;;;;21.70;11.53;;;;;;;7.03;67.65;100864.88;5019639;28;20310;-61
2022/12/03 09:19:03;;;;;;;23.83;11.07;;;;;;;7.06;67.45;100856.72;5016761;28;20203;-62
2022/12/03 09:21:30;;;;;;;18.67;10.20;;;;;;;7.06;67.31;100846.16;5023394;28;20213;-63
2022/12/03 09:23:58;;;;;;;23.43;11.43;;;;;;;7.00;67.17;100851.91;5021946;28;20225;-62
2022/12/03 09:26:27;;;;;;;21.80;10.73;;;;;;;6.95;67.42;100854.03;5018832;28;20305;-64
2022/12/03 09:28:54;;;;;;;22.33;10.87;;;;;;;6.98;67.06;100848.56;5025226;28;20218;-63
2022/12/03 09:31:22;;;;;;;21.90;11.20;;;;;;;6.82;67.47;100852.47;5023048;28;20333;-62
2022/12/03 09:33:50;;;;;;;20.90;10.63;;;;;;;6.80;68.10;100868.38;5025926;28;20218;-63
2022/12/03 09:36:19;;;;;;;20.67;11.47;;;;;;;6.83;67.75;100862.06;5022056;28;20212;-63
2022/12/03 09:38:47;;;;;;;19.70;10.30;;;;;;;6.72;67.40;100876.03;5025979;28;20216;-62
2022/12/03 09:41:15;;;;;;;25.53;12.67;;;;;;;6.66;68.05;100873.84;5017773;28;20212;-62
2022/12/03 09:43:43;;;;;;;22.63;11.13;;;;;;;6.72;68.45;100868.13;5018429;28;20700;-61
2022/12/03 09:46:31;;;;;;;23.47;11.00;;;;;;;6.72;68.58;100858.41;5019869;28;20271;-63
2022/12/03 09:48:58;;;;;;;20.83;11.00;;;;;;;6.81;68.76;100846.34;5025498;28;20578;-63
2022/12/03 09:51:33;;;;;;;23.57;12.20;;;;;;;6.92;68.78;100849.03;5014935;28;20232;-63
2022/12/03 09:54:02;;;;;;;22.77;11.27;;;;;;;6.99;68.42;100855.50;5016542;28;20233;-63
2022/12/03 09:56:30;;;;;;;24.97;12.33;;;;;;;7.03;67.95;100854.34;5022825;28;20598;-63
2022/12/03 09:58:59;;;;;;;25.43;11.27;;;;;;;7.10;68.04;100866.09;5018686;28;20209;-63
2022/12/03 10:01:26;;;;;;;21.87;11.43;;;;;;;7.18;67.82;100849.69;5019030;28;20217;-62
2022/12/03 10:03:58;;;;;;;22.87;11.87;;;;;;;7.21;67.33;100859.16;5012334;28;20306;-63
2022/12/03 10:06:26;;;;;;;28.07;12.87;;;;;;;7.21;67.51;100849.47;5025149;28;20443;-63
2022/12/03 10:08:55;;;;;;;19.80;11.60;;;;;;;7.28;67.53;100857.75;5018594;28;20222;-63
2022/12/03 10:11:25;;;;;;;21.57;11.50;;;;;;;7.35;66.53;100851.88;5023290;28;20649;-63
2022/12/03 10:13:55;;;;;;;24.93;12.90;;;;;;;7.34;66.17;100842.28;5025896;28;20238;-63
2022/12/03 10:16:23;;;;;;;24.70;12.67;;;;;;;7.35;66.62;100835.19;5025175;28;20423;-63
2022/12/03 10:18:53;;;;;;;23.40;12.47;;;;;;;7.39;67.03;100839.25;5025010;28;20207;-63
2022/12/03 10:21:25;;;;;;;24.00;11.97;;;;;;;7.46;67.26;100835.22;5017464;28;20464;-63
2022/12/03 10:24:18;;;;;;;27.47;11.97;;;;;;;7.55;66.83;100834.50;5016895;28;20208;-64
2022/12/03 10:26:48;;;;;;;25.80;12.17;;;;;;;7.69;66.11;100828.97;5019524;28;20218;-63
2022/12/03 10:29:38;;;;;;;27.30;13.57;;;;;;;7.65;66.26;100822.22;5155560;27;20635;-63
2022/12/03 10:32:08;;;;;;;21.07;11.93;;;;;;;7.78;66.40;100822.13;5140366;27;20214;-63
2022/12/03 10:34:38;;;;;;;39.87;14.60;;;;;;;7.94;65.34;100812.84;5141929;27;20238;-63
2022/12/03 10:37:11;;;;;;;23.67;12.13;;;;;;;8.15;65.01;100802.38;5141271;27;20211;-64
2022/12/03 10:39:57;;;;;;;26.63;12.27;;;;;;;8.36;63.95;100806.88;5135436;27;20563;-63
2022/12/03 10:42:26;;;;;;;23.77;12.83;;;;;;;8.56;63.33;100799.00;5141891;27;20283;-63
2022/12/03 10:45:14;;;;;;;22.07;11.37;;;;;;;8.83;61.38;100801.13;5143039;27;20207;-63
2022/12/03 10:47:42;;;;;;;22.67;11.87;;;;;;;8.90;61.18;100796.16;5130416;27;20309;-64
2022/12/03 10:50:17;;;;;;;23.70;12.50;;;;;;;8.87;61.04;100786.72;5130528;27;20660;-64
2022/12/03 10:52:45;;;;;;;24.23;12.90;;;;;;;8.85;61.36;100793.09;5143216;27;20384;-63
2022/12/03 10:55:14;;;;;;;20.30;11.67;;;;;;;8.85;61.46;100793.94;5139799;27;20214;-63
2022/12/03 10:57:42;;;;;;;23.77;12.67;;;;;;;9.04;61.42;100788.75;5139645;27;20204;-64
2022/12/03 11:00:18;;;;;;;24.57;12.57;;;;;;;9.19;60.57;100786.59;5139054;27;20299;-64
2022/12/03 11:02:46;;;;;;;24.70;13.67;;;;;;;9.30;59.94;100783.88;5140401;27;20205;-63
2022/12/03 11:05:26;;;;;;;24.53;13.70;;;;;;;9.33;59.68;100780.94;5139124;27;20225;-64
2022/12/03 11:07:54;;;;;;;23.20;12.67;;;;;;;9.30;59.76;100780.41;5138416;27;20256;-64
2022/12/03 11:10:22;;;;;;;26.07;12.97;;;;;;;9.29;60.33;100771.63;5130752;27;20308;-63
2022/12/03 11:13:28;;;;;;;21.37;12.73;;;;;;;9.27;60.17;100770.91;5133937;27;20213;-64
2022/12/03 11:15:58;;;;;;;23.67;12.63;;;;;;;9.12;59.96;100763.44;5136222;27;20211;-63
2022/12/03 11:19:01;;;;;;;24.03;13.17;;;;;;;9.13;60.75;100759.84;5140854;27;20206;-64
2022/12/03 11:21:31;;;;;;;28.90;13.33;;;;;;;9.27;60.31;100755.03;5135343;27;20590;-64
2022/12/03 11:24:21;;;;;;;26.53;13.50;;;;;;;9.48;59.58;100754.13;5144365;27;20840;-64
2022/12/03 11:27:17;;;;;;;26.07;14.87;;;;;;;9.49;59.79;100750.53;5132942;27;20799;-63
2022/12/03 11:30:00;;;;;;;24.27;13.53;;;;;;;9.44;60.04;100749.09;5092556;28;20326;-64
2022/12/03 11:33:06;;;;;;;27.37;14.43;;;;;;;9.39;59.95;100756.63;5097038;28;20525;-63
2022/12/03 11:36:14;;;;;;;26.30;12.97;;;;;;;9.28;59.24;100748.75;5100689;28;20242;-64
2022/12/03 11:38:48;;;;;;;25.53;14.50;;;;;;;9.06;59.40;100744.47;5098564;28;20205;-64
2022/12/03 11:41:22;;;;;;;25.30;14.27;;;;;;;8.81;60.34;100746.69;5080392;28;20206;-63
2022/12/03 11:44:18;;;;;;;29.03;13.83;;;;;;;8.50;61.56;100744.00;5074514;28;20298;-63
2022/12/03 11:46:47;;;;;;;24.87;15.03;;;;;;;8.33;62.62;100744.56;5084524;28;20312;-63
2022/12/03 11:49:35;;;;;;;25.03;13.40;;;;;;;8.22;63.24;100739.28;5086514;28;20741;-63
2022/12/03 11:52:19;;;;;;;25.43;14.00;;;;;;;8.19;63.16;100731.59;5073118;28;20198;-63
2022/12/03 11:54:51;;;;;;;26.70;14.30;;;;;;;8.19;63.55;100726.31;5075667;28;20223;-63
2022/12/03 11:57:29;;;;;;;27.47;13.67;;;;;;;8.18;63.54;100724.69;5077489;28;20209;-62
2022/12/03 12:00:08;;;;;;;28.37;14.80;;;;;;;8.07;62.95;100732.63;5079278;28;20662;-63